sensor_id;sensor_type;location;lat;lon;timestamp;temperature;humidity
47540;DHT22;33280;52.152;21.052;2022-09-03T00:00:36;11.70;99.90
47540;DHT22;33280;52.152;21.052;2022-09-03T00:08:22;11.60;99.90
47540;DHT22;33280;52.152;21.052;2022-09-03T00:13:26;11.60;99.90
47540;DHT22;33280;52.152;21.052;2022-09-03T00:15:56;11.60;99.90
47540;DHT22;33280;52.152;21.052;2022-09-03T00:18:27;11.60;99.90
47540;DHT22;33280;52.152;21.052;2022-09-03T00:21:19;11.60;99.90
47540;DHT22;33280;52.152;21.052;2022-09-03T00:23:49;11.60;99.90
47540;DHT22;33280;52.152;21.052;2022-09-03T00:26:26;11.60;99.90
47540;DHT22;33280;52.152;21.052;2022-09-03T00:29:14;11.50;99.90
47540;DHT22;33280;52.152;21.052;2022-09-03T00:31:47;11.50;99.90
47540;DHT22;33280;52.152;21.052;2022-09-03T00:34:29;11.40;99.90
47540;DHT22;33280;52.152;21.052;2022-09-03T00:36:58;11.30;99.90
47540;DHT22;33280;52.152;21.052;2022-09-03T00:39:26;11.30;99.90
47540;DHT22;33280;52.152;21.052;2022-09-03T00:51:09;11.20;99.90
47540;DHT22;33280;52.152;21.052;2022-09-03T01:01:40;11.10;99.90
47540;DHT22;33280;52.152;21.052;2022-09-03T01:06:57;11.00;99.90
47540;DHT22;33280;52.152;21.052;2022-09-03T01:12:12;10.90;99.90
47540;DHT22;33280;52.152;21.052;2022-09-03T01:32:06;10.70;99.90
47540;DHT22;33280;52.152;21.052;2022-09-03T01:46:01;10.50;99.90
47540;DHT22;33280;52.152;21.052;2022-09-03T01:51:19;10.40;99.90
47540;DHT22;33280;52.152;21.052;2022-09-03T02:04:33;10.20;99.90
47540;DHT22;33280;52.152;21.052;2022-09-03T02:07:01;10.10;99.90
47540;DHT22;33280;52.152;21.052;2022-09-03T02:09:28;10.10;99.90
47540;DHT22;33280;52.152;21.052;2022-09-03T02:12:07;10.10;99.90
47540;DHT22;33280;52.152;21.052;2022-09-03T02:14:37;10.10;99.90
47540;DHT22;33280;52.152;21.052;2022-09-03T02:17:04;10.00;99.90
47540;DHT22;33280;52.152;21.052;2022-09-03T02:19:33;10.00;99.90
47540;DHT22;33280;52.152;21.052;2022-09-03T02:22:00;9.90;99.90
47540;DHT22;33280;52.152;21.052;2022-09-03T02:24:27;9.90;99.90
47540;DHT22;33280;52.152;21.052;2022-09-03T02:26:54;9.80;99.90
47540;DHT22;33280;52.152;21.052;2022-09-03T02:29:24;9.80;99.90
47540;DHT22;33280;52.152;21.052;2022-09-03T02:31:54;9.80;99.90
47540;DHT22;33280;52.152;21.052;2022-09-03T02:34:21;9.80;99.90
47540;DHT22;33280;52.152;21.052;2022-09-03T02:36:48;9.80;99.90
47540;DHT22;33280;52.152;21.052;2022-09-03T02:39:16;9.70;99.90
47540;DHT22;33280;52.152;21.052;2022-09-03T02:41:43;9.70;99.90
47540;DHT22;33280;52.152;21.052;2022-09-03T02:44:19;9.70;99.90
47540;DHT22;33280;52.152;21.052;2022-09-03T02:47:03;9.70;99.90
47540;DHT22;33280;52.152;21.052;2022-09-03T02:49:31;9.70;99.90
47540;DHT22;33280;52.152;21.052;2022-09-03T02:52:04;9.60;99.90
47540;DHT22;33280;52.152;21.052;2022-09-03T02:54:32;9.50;99.90
47540;DHT22;33280;52.152;21.052;2022-09-03T02:57:02;9.50;99.90
47540;DHT22;33280;52.152;21.052;2022-09-03T02:59:29;9.40;99.90
47540;DHT22;33280;52.152;21.052;2022-09-03T03:01:56;9.40;99.90
47540;DHT22;33280;52.152;21.052;2022-09-03T03:04:28;9.40;99.90
47540;DHT22;33280;52.152;21.052;2022-09-03T03:06:55;9.30;99.90
47540;DHT22;33280;52.152;21.052;2022-09-03T03:09:22;9.30;99.90
47540;DHT22;33280;52.152;21.052;2022-09-03T03:11:49;9.20;99.90
47540;DHT22;33280;52.152;21.052;2022-09-03T03:14:17;9.20;99.90
47540;DHT22;33280;52.152;21.052;2022-09-03T03:16:44;9.20;99.90
47540;DHT22;33280;52.152;21.052;2022-09-03T03:19:11;9.20;99.90
47540;DHT22;33280;52.152;21.052;2022-09-03T03:21:38;9.10;99.90
47540;DHT22;33280;52.152;21.052;2022-09-03T03:24:06;9.10;99.90
47540;DHT22;33280;52.152;21.052;2022-09-03T03:26:33;9.00;99.90
47540;DHT22;33280;52.152;21.052;2022-09-03T03:29:01;9.00;99.90
47540;DHT22;33280;52.152;21.052;2022-09-03T03:31:32;9.00;99.90
47540;DHT22;33280;52.152;21.052;2022-09-03T03:34:03;9.00;99.90
47540;DHT22;33280;52.152;21.052;2022-09-03T03:36:32;9.00;99.90
47540;DHT22;33280;52.152;21.052;2022-09-03T03:39:00;8.90;99.90
47540;DHT22;33280;52.152;21.052;2022-09-03T03:41:32;8.90;99.90
47540;DHT22;33280;52.152;21.052;2022-09-03T03:44:02;9.00;99.90
47540;DHT22;33280;52.152;21.052;2022-09-03T03:46:33;9.00;99.90
47540;DHT22;33280;52.152;21.052;2022-09-03T03:49:00;8.90;99.90
47540;DHT22;33280;52.152;21.052;2022-09-03T03:51:30;8.90;99.90
47540;DHT22;33280;52.152;21.052;2022-09-03T03:53:58;8.80;99.90
47540;DHT22;33280;52.152;21.052;2022-09-03T03:56:30;8.80;99.90
47540;DHT22;33280;52.152;21.052;2022-09-03T03:58:58;8.80;99.90
47540;DHT22;33280;52.152;21.052;2022-09-03T04:01:26;8.80;99.90
47540;DHT22;33280;52.152;21.052;2022-09-03T04:03:57;8.80;99.90
47540;DHT22;33280;52.152;21.052;2022-09-03T04:06:27;8.70;99.90
47540;DHT22;33280;52.152;21.052;2022-09-03T04:08:54;8.80;99.90
47540;DHT22;33280;52.152;21.052;2022-09-03T04:11:22;8.80;99.90
47540;DHT22;33280;52.152;21.052;2022-09-03T04:13:51;8.80;99.90
47540;DHT22;33280;52.152;21.052;2022-09-03T04:16:24;8.80;99.90
47540;DHT22;33280;52.152;21.052;2022-09-03T04:18:53;8.80;99.90
47540;DHT22;33280;52.152;21.052;2022-09-03T04:21:23;8.80;99.90
47540;DHT22;33280;52.152;21.052;2022-09-03T04:23:53;8.80;99.90
47540;DHT22;33280;52.152;21.052;2022-09-03T04:26:25;8.80;99.90
47540;DHT22;33280;52.152;21.052;2022-09-03T04:28:54;8.80;99.90
47540;DHT22;33280;52.152;21.052;2022-09-03T04:31:24;8.80;99.90
47540;DHT22;33280;52.152;21.052;2022-09-03T04:33:51;8.80;99.90
47540;DHT22;33280;52.152;21.052;2022-09-03T04:36:20;8.80;99.90
47540;DHT22;33280;52.152;21.052;2022-09-03T04:38:49;8.80;99.90
47540;DHT22;33280;52.152;21.052;2022-09-03T04:41:21;8.80;99.90
47540;DHT22;33280;52.152;21.052;2022-09-03T04:43:55;8.90;99.90
47540;DHT22;33280;52.152;21.052;2022-09-03T04:46:24;9.00;99.90
47540;DHT22;33280;52.152;21.052;2022-09-03T04:48:53;9.10;99.90
47540;DHT22;33280;52.152;21.052;2022-09-03T04:51:27;9.00;99.90
47540;DHT22;33280;52.152;21.052;2022-09-03T04:53:58;9.10;99.90
47540;DHT22;33280;52.152;21.052;2022-09-03T04:56:28;9.20;99.90
47540;DHT22;33280;52.152;21.052;2022-09-03T04:59:04;9.20;99.90
47540;DHT22;33280;52.152;21.052;2022-09-03T05:01:33;9.20;99.90
47540;DHT22;33280;52.152;21.052;2022-09-03T05:04:01;9.30;99.90
47540;DHT22;33280;52.152;21.052;2022-09-03T05:06:29;9.30;99.90
47540;DHT22;33280;52.152;21.052;2022-09-03T05:08:57;9.40;99.90
47540;DHT22;33280;52.152;21.052;2022-09-03T05:11:26;9.40;99.90
47540;DHT22;33280;52.152;21.052;2022-09-03T05:13:55;9.40;99.90
47540;DHT22;33280;52.152;21.052;2022-09-03T05:16:23;9.50;99.90
47540;DHT22;33280;52.152;21.052;2022-09-03T05:18:55;9.60;99.90
47540;DHT22;33280;52.152;21.052;2022-09-03T05:21:22;9.80;99.90
47540;DHT22;33280;52.152;21.052;2022-09-03T05:23:50;9.80;99.90
47540;DHT22;33280;52.152;21.052;2022-09-03T05:26:20;9.90;99.90
47540;DHT22;33280;52.152;21.052;2022-09-03T05:28:47;9.90;99.90
47540;DHT22;33280;52.152;21.052;2022-09-03T05:31:19;10.00;99.90
47540;DHT22;33280;52.152;21.052;2022-09-03T05:33:54;10.10;99.90
47540;DHT22;33280;52.152;21.052;2022-09-03T05:36:25;10.20;99.90
47540;DHT22;33280;52.152;21.052;2022-09-03T05:38:52;10.30;99.90
47540;DHT22;33280;52.152;21.052;2022-09-03T05:41:21;10.40;99.90
47540;DHT22;33280;52.152;21.052;2022-09-03T05:43:49;10.50;99.90
47540;DHT22;33280;52.152;21.052;2022-09-03T05:46:23;10.50;99.90
47540;DHT22;33280;52.152;21.052;2022-09-03T05:48:56;10.60;99.90
47540;DHT22;33280;52.152;21.052;2022-09-03T05:51:24;10.60;99.90
47540;DHT22;33280;52.152;21.052;2022-09-03T05:53:51;10.70;99.90
47540;DHT22;33280;52.152;21.052;2022-09-03T05:56:20;10.80;99.90
47540;DHT22;33280;52.152;21.052;2022-09-03T05:58:50;11.00;99.90
47540;DHT22;33280;52.152;21.052;2022-09-03T06:01:23;11.00;99.90
47540;DHT22;33280;52.152;21.052;2022-09-03T06:03:55;11.10;99.90
47540;DHT22;33280;52.152;21.052;2022-09-03T06:06:23;11.30;99.90
47540;DHT22;33280;52.152;21.052;2022-09-03T06:08:52;11.40;99.90
47540;DHT22;33280;52.152;21.052;2022-09-03T06:11:21;11.40;99.90
47540;DHT22;33280;52.152;21.052;2022-09-03T06:13:55;11.50;99.90
47540;DHT22;33280;52.152;21.052;2022-09-03T06:16:23;11.70;99.90
47540;DHT22;33280;52.152;21.052;2022-09-03T06:18:58;11.80;99.90
47540;DHT22;33280;52.152;21.052;2022-09-03T06:21:26;11.90;99.90
47540;DHT22;33280;52.152;21.052;2022-09-03T06:23:54;12.00;99.90
47540;DHT22;33280;52.152;21.052;2022-09-03T06:26:26;12.10;99.90
47540;DHT22;33280;52.152;21.052;2022-09-03T06:28:55;12.20;99.90
47540;DHT22;33280;52.152;21.052;2022-09-03T06:31:23;12.30;99.90
47540;DHT22;33280;52.152;21.052;2022-09-03T06:33:50;12.50;99.90
47540;DHT22;33280;52.152;21.052;2022-09-03T06:36:20;12.50;99.90
47540;DHT22;33280;52.152;21.052;2022-09-03T06:38:54;12.70;99.90
47540;DHT22;33280;52.152;21.052;2022-09-03T06:41:23;12.80;99.90
47540;DHT22;33280;52.152;21.052;2022-09-03T06:44:02;12.90;99.90
47540;DHT22;33280;52.152;21.052;2022-09-03T06:46:36;13.10;99.90
47540;DHT22;33280;52.152;21.052;2022-09-03T06:49:04;13.20;99.90
47540;DHT22;33280;52.152;21.052;2022-09-03T06:51:32;13.30;99.90
47540;DHT22;33280;52.152;21.052;2022-09-03T06:54:02;13.40;99.90
47540;DHT22;33280;52.152;21.052;2022-09-03T06:56:29;13.60;99.90
47540;DHT22;33280;52.152;21.052;2022-09-03T06:59:10;13.70;99.90
47540;DHT22;33280;52.152;21.052;2022-09-03T07:01:38;13.90;99.90
47540;DHT22;33280;52.152;21.052;2022-09-03T07:04:11;14.00;99.90
47540;DHT22;33280;52.152;21.052;2022-09-03T07:06:40;14.10;99.90
47540;DHT22;33280;52.152;21.052;2022-09-03T07:09:10;14.20;99.90
47540;DHT22;33280;52.152;21.052;2022-09-03T07:11:38;14.40;99.90
47540;DHT22;33280;52.152;21.052;2022-09-03T07:14:14;14.50;99.90
47540;DHT22;33280;52.152;21.052;2022-09-03T07:16:41;14.60;99.90
47540;DHT22;33280;52.152;21.052;2022-09-03T07:19:09;14.70;99.90
47540;DHT22;33280;52.152;21.052;2022-09-03T07:21:36;14.90;99.90
47540;DHT22;33280;52.152;21.052;2022-09-03T07:24:04;15.00;99.90
47540;DHT22;33280;52.152;21.052;2022-09-03T07:26:34;15.10;99.90
47540;DHT22;33280;52.152;21.052;2022-09-03T07:29:01;15.20;99.90
47540;DHT22;33280;52.152;21.052;2022-09-03T07:31:37;15.30;99.90
47540;DHT22;33280;52.152;21.052;2022-09-03T07:34:06;15.40;99.90
47540;DHT22;33280;52.152;21.052;2022-09-03T07:36:46;15.60;99.90
47540;DHT22;33280;52.152;21.052;2022-09-03T07:39:17;15.70;99.90
47540;DHT22;33280;52.152;21.052;2022-09-03T07:41:44;15.90;99.90
47540;DHT22;33280;52.152;21.052;2022-09-03T07:44:13;16.00;99.90
47540;DHT22;33280;52.152;21.052;2022-09-03T07:46:46;16.10;99.90
47540;DHT22;33280;52.152;21.052;2022-09-03T07:49:14;16.30;99.90
47540;DHT22;33280;52.152;21.052;2022-09-03T07:51:41;16.40;99.90
47540;DHT22;33280;52.152;21.052;2022-09-03T07:54:09;16.50;99.90
47540;DHT22;33280;52.152;21.052;2022-09-03T07:56:38;16.70;99.90
47540;DHT22;33280;52.152;21.052;2022-09-03T07:59:07;16.70;99.90
47540;DHT22;33280;52.152;21.052;2022-09-03T08:01:35;16.90;99.90
47540;DHT22;33280;52.152;21.052;2022-09-03T08:04:05;17.00;99.90
47540;DHT22;33280;52.152;21.052;2022-09-03T08:06:36;17.20;99.90
47540;DHT22;33280;52.152;21.052;2022-09-03T08:09:06;17.40;99.90
47540;DHT22;33280;52.152;21.052;2022-09-03T08:11:36;17.50;99.90
47540;DHT22;33280;52.152;21.052;2022-09-03T08:14:06;17.60;99.90
47540;DHT22;33280;52.152;21.052;2022-09-03T08:16:47;17.80;99.90
47540;DHT22;33280;52.152;21.052;2022-09-03T08:19:14;18.10;99.90
47540;DHT22;33280;52.152;21.052;2022-09-03T08:21:43;18.40;99.90
47540;DHT22;33280;52.152;21.052;2022-09-03T08:24:11;18.80;99.90
47540;DHT22;33280;52.152;21.052;2022-09-03T08:26:40;19.30;99.90
47540;DHT22;33280;52.152;21.052;2022-09-03T08:29:13;19.80;98.10
47540;DHT22;33280;52.152;21.052;2022-09-03T08:31:40;20.80;95.50
47540;DHT22;33280;52.152;21.052;2022-09-03T08:34:07;22.00;91.60
47540;DHT22;33280;52.152;21.052;2022-09-03T08:36:37;22.80;87.50
47540;DHT22;33280;52.152;21.052;2022-09-03T08:39:08;23.40;82.70
47540;DHT22;33280;52.152;21.052;2022-09-03T08:44:39;24.00;73.40
47540;DHT22;33280;52.152;21.052;2022-09-03T08:52:50;24.80;65.60
47540;DHT22;33280;52.152;21.052;2022-09-03T08:58:16;25.20;61.40
47540;DHT22;33280;52.152;21.052;2022-09-03T09:00:48;25.30;60.30
47540;DHT22;33280;52.152;21.052;2022-09-03T09:03:45;25.40;59.90
47540;DHT22;33280;52.152;21.052;2022-09-03T09:06:45;25.90;59.70
47540;DHT22;33280;52.152;21.052;2022-09-03T09:11:59;25.70;59.10
47540;DHT22;33280;52.152;21.052;2022-09-03T09:20:17;25.70;56.30
47540;DHT22;33280;52.152;21.052;2022-09-03T09:22:51;25.80;56.70
47540;DHT22;33280;52.152;21.052;2022-09-03T09:25:21;26.00;55.10
47540;DHT22;33280;52.152;21.052;2022-09-03T09:28:03;25.80;55.60
47540;DHT22;33280;52.152;21.052;2022-09-03T09:30:37;26.00;54.40
47540;DHT22;33280;52.152;21.052;2022-09-03T09:33:04;26.10;54.10
47540;DHT22;33280;52.152;21.052;2022-09-03T09:35:31;26.40;53.90
47540;DHT22;33280;52.152;21.052;2022-09-03T09:37:58;26.70;52.70
47540;DHT22;33280;52.152;21.052;2022-09-03T09:40:31;26.80;52.20
47540;DHT22;33280;52.152;21.052;2022-09-03T09:43:18;26.80;51.00
47540;DHT22;33280;52.152;21.052;2022-09-03T09:45:49;26.90;51.20
47540;DHT22;33280;52.152;21.052;2022-09-03T09:48:19;27.20;51.90
47540;DHT22;33280;52.152;21.052;2022-09-03T09:50:48;27.40;50.50
47540;DHT22;33280;52.152;21.052;2022-09-03T09:53:17;27.70;50.30
47540;DHT22;33280;52.152;21.052;2022-09-03T09:55:52;28.00;49.80
47540;DHT22;33280;52.152;21.052;2022-09-03T09:58:21;28.40;49.10
47540;DHT22;33280;52.152;21.052;2022-09-03T10:01:09;28.50;47.00
47540;DHT22;33280;52.152;21.052;2022-09-03T10:03:55;28.30;48.00
47540;DHT22;33280;52.152;21.052;2022-09-03T10:06:24;28.50;47.90
47540;DHT22;33280;52.152;21.052;2022-09-03T10:09:13;28.70;47.60
47540;DHT22;33280;52.152;21.052;2022-09-03T10:11:55;28.90;46.10
47540;DHT22;33280;52.152;21.052;2022-09-03T10:14:46;29.20;45.80
47540;DHT22;33280;52.152;21.052;2022-09-03T10:26:06;29.10;45.30
47540;DHT22;33280;52.152;21.052;2022-09-03T10:28:38;28.90;44.80
47540;DHT22;33280;52.152;21.052;2022-09-03T10:34:20;29.40;45.90
47540;DHT22;33280;52.152;21.052;2022-09-03T10:39:30;29.80;44.20
47540;DHT22;33280;52.152;21.052;2022-09-03T10:50:53;30.50;43.30
47540;DHT22;33280;52.152;21.052;2022-09-03T10:56:24;30.50;42.60
47540;DHT22;33280;52.152;21.052;2022-09-03T11:04:48;31.20;41.30
47540;DHT22;33280;52.152;21.052;2022-09-03T11:07:21;31.10;41.20
47540;DHT22;33280;52.152;21.052;2022-09-03T11:10:21;30.90;41.50
47540;DHT22;33280;52.152;21.052;2022-09-03T11:13:07;31.00;41.30
47540;DHT22;33280;52.152;21.052;2022-09-03T11:15:48;30.80;42.10
47540;DHT22;33280;52.152;21.052;2022-09-03T11:20:59;31.00;42.30
47540;DHT22;33280;52.152;21.052;2022-09-03T11:23:37;31.30;41.30
47540;DHT22;33280;52.152;21.052;2022-09-03T11:26:10;31.40;41.30
47540;DHT22;33280;52.152;21.052;2022-09-03T11:29:11;31.80;40.90
47540;DHT22;33280;52.152;21.052;2022-09-03T11:34:31;33.00;40.20
47540;DHT22;33280;52.152;21.052;2022-09-03T11:37:20;33.20;39.40
47540;DHT22;33280;52.152;21.052;2022-09-03T11:40:05;33.70;38.10
47540;DHT22;33280;52.152;21.052;2022-09-03T11:42:35;33.70;38.40
47540;DHT22;33280;52.152;21.052;2022-09-03T11:47:50;34.40;37.30
47540;DHT22;33280;52.152;21.052;2022-09-03T11:52:49;35.30;36.10
47540;DHT22;33280;52.152;21.052;2022-09-03T11:55:33;35.40;35.40
47540;DHT22;33280;52.152;21.052;2022-09-03T11:58:27;35.60;35.80
47540;DHT22;33280;52.152;21.052;2022-09-03T12:00:56;35.80;34.90
47540;DHT22;33280;52.152;21.052;2022-09-03T12:03:28;36.00;34.60
47540;DHT22;33280;52.152;21.052;2022-09-03T12:14:40;35.60;34.40
47540;DHT22;33280;52.152;21.052;2022-09-03T12:19:55;35.70;34.10
47540;DHT22;33280;52.152;21.052;2022-09-03T12:22:28;35.90;36.50
47540;DHT22;33280;52.152;21.052;2022-09-03T12:25:13;35.60;38.40
47540;DHT22;33280;52.152;21.052;2022-09-03T12:27:44;35.00;39.10
47540;DHT22;33280;52.152;21.052;2022-09-03T12:30:18;34.40;42.30
47540;DHT22;33280;52.152;21.052;2022-09-03T12:32:47;33.70;44.50
47540;DHT22;33280;52.152;21.052;2022-09-03T12:35:19;33.00;45.50
47540;DHT22;33280;52.152;21.052;2022-09-03T12:38:06;32.60;42.60
47540;DHT22;33280;52.152;21.052;2022-09-03T12:40:42;32.50;43.20
47540;DHT22;33280;52.152;21.052;2022-09-03T12:43:29;32.30;44.70
47540;DHT22;33280;52.152;21.052;2022-09-03T12:46:13;32.60;41.10
47540;DHT22;33280;52.152;21.052;2022-09-03T12:48:52;32.50;41.90
47540;DHT22;33280;52.152;21.052;2022-09-03T12:51:41;32.40;42.40
47540;DHT22;33280;52.152;21.052;2022-09-03T12:54:23;32.00;42.30
47540;DHT22;33280;52.152;21.052;2022-09-03T12:56:56;31.30;42.20
47540;DHT22;33280;52.152;21.052;2022-09-03T12:59:26;31.20;43.00
47540;DHT22;33280;52.152;21.052;2022-09-03T13:01:58;31.10;43.20
47540;DHT22;33280;52.152;21.052;2022-09-03T13:04:34;30.80;43.90
47540;DHT22;33280;52.152;21.052;2022-09-03T13:07:05;30.40;44.00
47540;DHT22;33280;52.152;21.052;2022-09-03T13:09:36;29.80;44.70
47540;DHT22;33280;52.152;21.052;2022-09-03T13:12:04;29.50;43.60
47540;DHT22;33280;52.152;21.052;2022-09-03T13:14:46;28.90;43.80
47540;DHT22;33280;52.152;21.052;2022-09-03T13:20:37;27.70;46.10
47540;DHT22;33280;52.152;21.052;2022-09-03T13:23:31;27.00;45.70
47540;DHT22;33280;52.152;21.052;2022-09-03T13:26:17;26.40;46.70
47540;DHT22;33280;52.152;21.052;2022-09-03T13:29:07;26.10;47.10
47540;DHT22;33280;52.152;21.052;2022-09-03T13:31:42;25.90;47.30
47540;DHT22;33280;52.152;21.052;2022-09-03T13:34:19;25.60;49.60
47540;DHT22;33280;52.152;21.052;2022-09-03T13:40:18;25.50;50.10
47540;DHT22;33280;52.152;21.052;2022-09-03T13:42:37;25.30;49.50
47540;DHT22;33280;52.152;21.052;2022-09-03T13:47:58;25.10;50.00
47540;DHT22;33280;52.152;21.052;2022-09-03T13:53:49;24.80;50.20
47540;DHT22;33280;52.152;21.052;2022-09-03T13:59:30;24.70;50.50
47540;DHT22;33280;52.152;21.052;2022-09-03T14:05:08;24.50;51.80
47540;DHT22;33280;52.152;21.052;2022-09-03T14:24:21;24.30;51.80
47540;DHT22;33280;52.152;21.052;2022-09-03T14:26:57;24.30;51.50
47540;DHT22;33280;52.152;21.052;2022-09-03T14:29:33;24.20;51.30
47540;DHT22;33280;52.152;21.052;2022-09-03T14:40:20;24.40;51.00
47540;DHT22;33280;52.152;21.052;2022-09-03T14:43:01;24.50;50.60
47540;DHT22;33280;52.152;21.052;2022-09-03T14:51:08;24.10;51.80
47540;DHT22;33280;52.152;21.052;2022-09-03T15:05:08;23.90;51.40
47540;DHT22;33280;52.152;21.052;2022-09-03T15:07:41;23.90;50.90
47540;DHT22;33280;52.152;21.052;2022-09-03T15:10:35;23.90;51.40
47540;DHT22;33280;52.152;21.052;2022-09-03T15:13:13;24.00;51.20
47540;DHT22;33280;52.152;21.052;2022-09-03T15:18:45;23.60;51.80
47540;DHT22;33280;52.152;21.052;2022-09-03T15:21:28;23.40;53.10
47540;DHT22;33280;52.152;21.052;2022-09-03T15:26:55;23.00;53.70
47540;DHT22;33280;52.152;21.052;2022-09-03T15:32:08;22.80;54.60
47540;DHT22;33280;52.152;21.052;2022-09-03T15:37:21;22.70;54.60
47540;DHT22;33280;52.152;21.052;2022-09-03T15:40:02;22.70;54.90
47540;DHT22;33280;52.152;21.052;2022-09-03T15:42:30;22.50;55.10
47540;DHT22;33280;52.152;21.052;2022-09-03T15:45:29;22.40;55.60
47540;DHT22;33280;52.152;21.052;2022-09-03T15:48:08;22.20;54.90
47540;DHT22;33280;52.152;21.052;2022-09-03T15:50:50;22.10;55.60
47540;DHT22;33280;52.152;21.052;2022-09-03T15:53:57;22.00;56.00
47540;DHT22;33280;52.152;21.052;2022-09-03T15:56:49;22.00;56.60
47540;DHT22;33280;52.152;21.052;2022-09-03T15:59:25;21.90;56.60
47540;DHT22;33280;52.152;21.052;2022-09-03T16:02:19;21.90;57.00
47540;DHT22;33280;52.152;21.052;2022-09-03T16:05:04;21.80;56.70
47540;DHT22;33280;52.152;21.052;2022-09-03T16:10:13;21.60;57.50
47540;DHT22;33280;52.152;21.052;2022-09-03T16:15:59;21.50;58.40
47540;DHT22;33280;52.152;21.052;2022-09-03T16:18:42;21.40;58.30
47540;DHT22;33280;52.152;21.052;2022-09-03T16:27:21;21.40;58.40
47540;DHT22;33280;52.152;21.052;2022-09-03T16:32:52;21.70;57.90
47540;DHT22;33280;52.152;21.052;2022-09-03T16:35:26;21.90;58.20
47540;DHT22;33280;52.152;21.052;2022-09-03T16:38:07;21.90;58.00
47540;DHT22;33280;52.152;21.052;2022-09-03T16:40:50;22.00;57.80
47540;DHT22;33280;52.152;21.052;2022-09-03T16:54:26;21.60;58.10
47540;DHT22;33280;52.152;21.052;2022-09-03T17:10:38;20.70;60.30
47540;DHT22;33280;52.152;21.052;2022-09-03T17:22:02;20.10;62.50
47540;DHT22;33280;52.152;21.052;2022-09-03T17:27:20;19.80;63.50
47540;DHT22;33280;52.152;21.052;2022-09-03T17:32:52;19.50;65.00
47540;DHT22;33280;52.152;21.052;2022-09-03T17:43:49;19.00;67.30
47540;DHT22;33280;52.152;21.052;2022-09-03T17:46:53;18.90;67.60
47540;DHT22;33280;52.152;21.052;2022-09-03T17:49:25;18.80;67.50
47540;DHT22;33280;52.152;21.052;2022-09-03T17:52:01;18.70;68.20
47540;DHT22;33280;52.152;21.052;2022-09-03T17:54:44;18.60;68.70
47540;DHT22;33280;52.152;21.052;2022-09-03T17:57:26;18.60;68.50
47540;DHT22;33280;52.152;21.052;2022-09-03T18:00:04;18.40;68.90
47540;DHT22;33280;52.152;21.052;2022-09-03T18:05:51;18.30;69.50
47540;DHT22;33280;52.152;21.052;2022-09-03T18:11:13;18.20;70.40
47540;DHT22;33280;52.152;21.052;2022-09-03T18:19:58;17.90;71.80
47540;DHT22;33280;52.152;21.052;2022-09-03T18:23:05;17.80;71.80
47540;DHT22;33280;52.152;21.052;2022-09-03T18:25:57;17.80;71.80
47540;DHT22;33280;52.152;21.052;2022-09-03T18:28:49;17.70;71.80
47540;DHT22;33280;52.152;21.052;2022-09-03T18:31:35;17.70;72.30
47540;DHT22;33280;52.152;21.052;2022-09-03T18:34:30;17.60;72.10
47540;DHT22;33280;52.152;21.052;2022-09-03T18:37:21;17.60;72.90
47540;DHT22;33280;52.152;21.052;2022-09-03T18:40:10;17.50;72.90
47540;DHT22;33280;52.152;21.052;2022-09-03T18:46:13;17.40;73.90
47540;DHT22;33280;52.152;21.052;2022-09-03T18:49:27;17.30;73.50
47540;DHT22;33280;52.152;21.052;2022-09-03T18:52:39;17.30;74.50
47540;DHT22;33280;52.152;21.052;2022-09-03T19:01:42;17.00;75.70
47540;DHT22;33280;52.152;21.052;2022-09-03T19:07:29;16.90;75.90
47540;DHT22;33280;52.152;21.052;2022-09-03T19:10:23;16.90;76.50
47540;DHT22;33280;52.152;21.052;2022-09-03T19:13:19;16.80;77.10
47540;DHT22;33280;52.152;21.052;2022-09-03T19:22:47;16.70;78.00
47540;DHT22;33280;52.152;21.052;2022-09-03T19:25:28;16.60;79.00
47540;DHT22;33280;52.152;21.052;2022-09-03T19:28:27;16.60;79.60
47540;DHT22;33280;52.152;21.052;2022-09-03T19:31:24;16.50;79.90
47540;DHT22;33280;52.152;21.052;2022-09-03T19:34:48;16.40;80.90
47540;DHT22;33280;52.152;21.052;2022-09-03T19:41:16;16.20;81.20
47540;DHT22;33280;52.152;21.052;2022-09-03T19:48:00;16.10;81.70
47540;DHT22;33280;52.152;21.052;2022-09-03T19:50:40;16.10;82.60
47540;DHT22;33280;52.152;21.052;2022-09-03T19:53:34;16.00;83.20
47540;DHT22;33280;52.152;21.052;2022-09-03T19:56:28;16.00;83.60
47540;DHT22;33280;52.152;21.052;2022-09-03T19:59:20;15.90;83.80
47540;DHT22;33280;52.152;21.052;2022-09-03T20:02:08;15.80;84.10
47540;DHT22;33280;52.152;21.052;2022-09-03T20:04:59;15.70;84.50
47540;DHT22;33280;52.152;21.052;2022-09-03T20:07:46;15.60;85.10
47540;DHT22;33280;52.152;21.052;2022-09-03T20:10:34;15.60;85.90
47540;DHT22;33280;52.152;21.052;2022-09-03T20:13:14;15.60;86.40
47540;DHT22;33280;52.152;21.052;2022-09-03T20:18:52;15.50;86.40
47540;DHT22;33280;52.152;21.052;2022-09-03T20:21:37;15.40;86.90
47540;DHT22;33280;52.152;21.052;2022-09-03T20:24:16;15.40;87.50
47540;DHT22;33280;52.152;21.052;2022-09-03T20:29:53;15.40;88.00
47540;DHT22;33280;52.152;21.052;2022-09-03T20:32:32;15.30;88.50
47540;DHT22;33280;52.152;21.052;2022-09-03T20:35:12;15.20;88.60
47540;DHT22;33280;52.152;21.052;2022-09-03T20:38:00;15.20;88.90
47540;DHT22;33280;52.152;21.052;2022-09-03T20:51:34;15.00;90.10
47540;DHT22;33280;52.152;21.052;2022-09-03T20:54:11;15.00;90.00
47540;DHT22;33280;52.152;21.052;2022-09-03T21:03:03;14.90;90.00
47540;DHT22;33280;52.152;21.052;2022-09-03T21:05:18;14.80;90.20
47540;DHT22;33280;52.152;21.052;2022-09-03T21:11:02;14.80;90.20
47540;DHT22;33280;52.152;21.052;2022-09-03T21:13:38;14.80;90.20
47540;DHT22;33280;52.152;21.052;2022-09-03T21:24:48;14.70;90.50
47540;DHT22;33280;52.152;21.052;2022-09-03T21:27:20;14.70;90.40
47540;DHT22;33280;52.152;21.052;2022-09-03T21:30:13;14.70;90.60
47540;DHT22;33280;52.152;21.052;2022-09-03T21:35:37;14.70;90.60
47540;DHT22;33280;52.152;21.052;2022-09-03T21:38:08;14.60;90.60
47540;DHT22;33280;52.152;21.052;2022-09-03T21:40:45;14.60;90.70
47540;DHT22;33280;52.152;21.052;2022-09-03T21:43:43;14.60;90.90
47540;DHT22;33280;52.152;21.052;2022-09-03T21:46:19;14.60;91.30
47540;DHT22;33280;52.152;21.052;2022-09-03T21:51:27;14.50;91.30
47540;DHT22;33280;52.152;21.052;2022-09-03T21:54:28;14.50;91.20
47540;DHT22;33280;52.152;21.052;2022-09-03T21:57:02;14.40;91.50
47540;DHT22;33280;52.152;21.052;2022-09-03T22:02:25;14.40;91.60
47540;DHT22;33280;52.152;21.052;2022-09-03T22:04:54;14.30;92.00
47540;DHT22;33280;52.152;21.052;2022-09-03T22:10:41;14.30;92.20
47540;DHT22;33280;52.152;21.052;2022-09-03T22:16:22;14.20;92.50
47540;DHT22;33280;52.152;21.052;2022-09-03T22:18:53;14.10;92.70